Time;durP1;ratioP1;P1;durP2;ratioP2;P2;SDS_P1;SDS_P2;PMS_P1;PMS_P2;Temp;Humidity;BMP_temperature;BMP_pressure;BME280_temperature;BME280_humidity;BME280_pressure;Samples;Min_cycle;Max_cycle;Signal;HPM_P1;HPM_P2
2022/01/07 00:00:05;;;;;;;0.30;0.10;;;-0.40;99.90;;;;;;5065587;28;20835;-88
2022/01/07 00:02:33;;;;;;;0.30;0.10;;;-0.50;99.90;;;;;;5063639;28;20628;-86
2022/01/07 00:05:00;;;;;;;0.30;0.10;;;-0.70;99.90;;;;;;5070028;28;20234;-84
2022/01/07 00:07:27;;;;;;;0.30;0.10;;;-0.80;99.90;;;;;;5070037;28;20198;-87
2022/01/07 00:09:54;;;;;;;0.30;0.20;;;-0.80;99.90;;;;;;5071391;28;20207;-85
2022/01/07 00:12:22;;;;;;;0.30;0.10;;;-0.80;99.90;;;;;;5068559;28;20211;-85
2022/01/07 00:14:49;;;;;;;0.88;0.88;;;-0.90;99.90;;;;;;5069610;28;20732;-85
2022/01/07 00:17:17;;;;;;;0.30;0.10;;;-1.00;99.90;;;;;;5070389;28;20195;-85
2022/01/07 00:19:45;;;;;;;0.30;0.20;;;-1.00;99.90;;;;;;5071084;28;20202;-88
2022/01/07 00:22:13;;;;;;;0.30;0.10;;;-1.10;99.90;;;;;;5067517;28;20194;-85
2022/01/07 00:24:40;;;;;;;0.30;0.20;;;-1.20;99.90;;;;;;5066005;28;20204;-86
2022/01/07 00:27:07;;;;;;;0.30;0.20;;;-1.30;99.90;;;;;;5067856;28;20194;-85
2022/01/07 00:29:34;;;;;;;0.30;0.10;;;-1.40;99.90;;;;;;5062764;28;20252;-86
2022/01/07 00:32:01;;;;;;;0.30;0.10;;;-1.40;99.90;;;;;;5064911;28;20249;-85
2022/01/07 00:34:28;;;;;;;0.30;0.10;;;-1.30;99.90;;;;;;5066091;28;20226;-84
2022/01/07 00:36:56;;;;;;;0.30;0.15;;;-1.20;99.90;;;;;;5068309;28;20226;-85
2022/01/07 00:39:23;;;;;;;0.30;0.20;;;-1.10;99.90;;;;;;5070582;28;20715;-85
2022/01/07 00:41:50;;;;;;;0.30;0.10;;;-1.10;99.90;;;;;;5068342;28;20198;-86
2022/01/07 00:44:17;;;;;;;0.30;0.10;;;-1.10;99.90;;;;;;5064471;28;20644;-85
2022/01/07 00:46:44;;;;;;;0.30;0.10;;;-1.10;99.90;;;;;;5067451;28;20194;-85
2022/01/07 00:49:13;;;;;;;0.30;0.10;;;-1.20;99.90;;;;;;5067465;28;20265;-85
2022/01/07 00:51:40;;;;;;;0.30;0.10;;;-1.30;99.90;;;;;;5061370;28;20204;-85
2022/01/07 00:54:08;;;;;;;0.30;0.10;;;-1.20;99.90;;;;;;5066226;28;20225;-85
2022/01/07 00:56:35;;;;;;;0.30;0.10;;;-1.20;99.90;;;;;;5062451;28;20193;-85
2022/01/07 00:59:02;;;;;;;0.30;0.10;;;-1.30;99.90;;;;;;5051369;28;20196;-85
2022/01/07 01:01:29;;;;;;;0.30;0.10;;;-1.20;99.90;;;;;;5067981;28;20199;-85
2022/01/07 01:03:56;;;;;;;0.30;0.10;;;-1.20;99.90;;;;;;5068120;28;20191;-85
2022/01/07 01:06:23;;;;;;;0.30;0.10;;;-1.10;99.90;;;;;;5069087;28;20289;-84
2022/01/07 01:08:50;;;;;;;0.30;0.10;;;-1.00;99.90;;;;;;5066602;28;20198;-85
2022/01/07 01:11:19;;;;;;;0.30;0.10;;;-1.00;99.90;;;;;;5059596;28;20199;-86
2022/01/07 01:13:46;;;;;;;0.30;0.10;;;-0.90;99.90;;;;;;5067360;28;20719;-85
2022/01/07 01:16:13;;;;;;;0.30;0.10;;;-0.90;99.90;;;;;;5065698;28;20200;-84
2022/01/07 01:18:40;;;;;;;0.30;0.10;;;-1.00;99.90;;;;;;5066127;28;20261;-84
2022/01/07 01:21:07;;;;;;;0.30;0.20;;;-0.90;99.90;;;;;;5070422;28;20198;-84
2022/01/07 01:23:34;;;;;;;0.30;0.20;;;-1.00;99.90;;;;;;5069206;28;20243;-85
2022/01/07 01:26:01;;;;;;;0.30;0.10;;;-0.90;99.90;;;;;;5064607;28;20193;-85
2022/01/07 01:28:29;;;;;;;0.30;0.20;;;-0.90;99.90;;;;;;5058463;28;20259;-85
2022/01/07 01:30:57;;;;;;;0.30;0.10;;;-0.90;99.90;;;;;;5054753;28;20243;-86
2022/01/07 01:33:24;;;;;;;0.40;0.20;;;-1.00;99.90;;;;;;5064097;28;20276;-84
2022/01/07 01:35:50;;;;;;;0.30;0.10;;;-1.00;99.90;;;;;;5064399;28;20755;-84
2022/01/07 01:38:18;;;;;;;0.50;0.45;;;-1.10;99.90;;;;;;5068905;28;20239;-85
2022/01/07 01:40:45;;;;;;;0.30;0.10;;;-1.10;99.90;;;;;;5069801;28;20198;-84
2022/01/07 01:43:12;;;;;;;0.30;0.20;;;-1.00;99.90;;;;;;5063579;28;20193;-85
2022/01/07 01:45:41;;;;;;;0.30;0.15;;;-1.10;99.90;;;;;;5066808;28;20360;-85
2022/01/07 01:48:08;;;;;;;0.30;0.10;;;-1.20;99.90;;;;;;5066165;28;20251;-87
2022/01/07 01:50:34;;;;;;;0.30;0.10;;;-1.20;99.90;;;;;;5065019;28;20191;-85
2022/01/07 01:53:01;;;;;;;0.30;0.10;;;-1.30;99.90;;;;;;5068217;28;20317;-85
2022/01/07 01:55:29;;;;;;;0.30;0.10;;;-1.40;99.90;;;;;;5063245;28;20259;-87
2022/01/07 01:57:57;;;;;;;0.30;0.10;;;-1.40;99.90;;;;;;5066366;28;20917;-85
2022/01/07 02:00:26;;;;;;;0.30;0.10;;;-1.30;99.90;;;;;;5066152;28;20206;-86
2022/01/07 02:02:54;;;;;;;0.30;0.10;;;-1.30;99.90;;;;;;5063575;28;20199;-84
2022/01/07 02:05:22;;;;;;;0.30;0.10;;;-1.30;99.90;;;;;;5067867;28;20601;-85
2022/01/07 02:07:49;;;;;;;0.30;0.10;;;-1.20;99.90;;;;;;5065307;28;20199;-84
2022/01/07 02:10:18;;;;;;;0.30;0.10;;;-1.20;99.90;;;;;;5066474;28;20284;-86
2022/01/07 02:12:46;;;;;;;0.30;0.10;;;-1.20;99.90;;;;;;5068482;28;20207;-85
2022/01/07 02:15:15;;;;;;;0.30;0.10;;;-1.30;99.90;;;;;;5068126;28;20299;-86
2022/01/07 02:17:43;;;;;;;0.30;0.10;;;-1.20;99.90;;;;;;5065698;28;20263;-85
2022/01/07 02:20:13;;;;;;;0.30;0.20;;;-1.30;99.90;;;;;;5069497;28;20194;-86
2022/01/07 02:22:40;;;;;;;0.30;0.10;;;-1.30;99.90;;;;;;5060452;28;20249;-85
2022/01/07 02:25:07;;;;;;;0.30;0.10;;;-1.30;99.90;;;;;;5065445;28;20318;-85
2022/01/07 02:27:38;;;;;;;0.30;0.10;;;-1.30;99.90;;;;;;5066061;28;20257;-86
2022/01/07 02:30:08;;;;;;;0.30;0.10;;;-1.40;99.90;;;;;;5061251;28;20203;-84
2022/01/07 02:32:35;;;;;;;0.30;0.10;;;-1.40;99.90;;;;;;5067318;28;20277;-85
2022/01/07 02:35:03;;;;;;;0.30;0.10;;;-1.40;99.90;;;;;;5064073;28;20226;-87
2022/01/07 02:37:31;;;;;;;0.30;0.10;;;-1.40;99.90;;;;;;5065351;28;20194;-84
2022/01/07 02:39:58;;;;;;;0.30;0.10;;;-1.40;99.90;;;;;;5064370;28;20211;-85
2022/01/07 02:42:26;;;;;;;0.30;0.20;;;-1.50;99.90;;;;;;5066848;28;20199;-86
2022/01/07 02:44:53;;;;;;;0.30;0.10;;;-1.40;99.90;;;;;;5066482;28;20201;-85
2022/01/07 02:47:21;;;;;;;0.30;0.10;;;-1.40;99.90;;;;;;5068185;28;20190;-85
2022/01/07 02:49:48;;;;;;;0.30;0.10;;;-1.30;99.90;;;;;;5059116;28;20200;-85
2022/01/07 02:52:15;;;;;;;0.30;0.10;;;-1.20;99.90;;;;;;5062201;28;20892;-85
2022/01/07 02:54:44;;;;;;;0.30;0.15;;;-1.20;99.90;;;;;;5064917;28;20219;-86
2022/01/07 02:57:11;;;;;;;0.65;0.43;;;-1.20;99.90;;;;;;5062016;28;20549;-85
2022/01/07 02:59:37;;;;;;;0.30;0.20;;;-1.10;99.90;;;;;;5066227;28;20596;-85
2022/01/07 03:02:05;;;;;;;3.00;1.95;;;-1.20;99.90;;;;;;5064540;28;20276;-86
2022/01/07 03:04:32;;;;;;;0.30;0.10;;;-1.10;99.90;;;;;;5066864;28;20206;-85
2022/01/07 03:06:59;;;;;;;0.30;0.10;;;-1.20;99.90;;;;;;5064762;28;20257;-86
2022/01/07 03:09:26;;;;;;;0.30;0.10;;;-1.30;99.90;;;;;;5066897;28;20267;-85
2022/01/07 03:11:54;;;;;;;1.58;1.42;;;-1.30;99.90;;;;;;5062052;28;20594;-86
2022/01/07 03:14:21;;;;;;;0.30;0.10;;;-1.40;99.90;;;;;;5053961;28;20226;-86
2022/01/07 03:16:48;;;;;;;0.30;0.20;;;-1.30;99.90;;;;;;5064498;28;20256;-86
2022/01/07 03:19:15;;;;;;;0.30;0.10;;;-1.40;99.90;;;;;;5057029;28;20204;-86
2022/01/07 03:21:42;;;;;;;0.30;0.10;;;-1.40;99.90;;;;;;5067755;28;20200;-85
2022/01/07 03:24:09;;;;;;;0.30;0.10;;;-1.40;99.90;;;;;;5060115;28;20201;-85
2022/01/07 03:26:35;;;;;;;0.30;0.10;;;-1.40;99.90;;;;;;5060709;28;20198;-85
2022/01/07 03:29:04;;;;;;;0.55;0.55;;;-1.40;99.90;;;;;;5059732;28;20750;-84
2022/01/07 03:31:31;;;;;;;0.30;0.10;;;-1.40;99.90;;;;;;5058951;28;20194;-86
2022/01/07 03:33:58;;;;;;;0.30;0.10;;;-1.40;99.90;;;;;;5062355;28;20230;-85
2022/01/07 03:36:25;;;;;;;0.30;0.10;;;-1.60;99.90;;;;;;5066151;28;20299;-85
2022/01/07 03:38:52;;;;;;;0.30;0.10;;;-1.60;99.90;;;;;;5054850;28;20205;-86
2022/01/07 03:41:19;;;;;;;0.30;0.10;;;-1.60;99.90;;;;;;5071878;28;20202;-85
2022/01/07 03:43:46;;;;;;;0.30;0.10;;;-1.60;99.90;;;;;;5064056;28;20198;-84
2022/01/07 03:46:14;;;;;;;0.30;0.10;;;-1.50;99.90;;;;;;5067241;28;20697;-86
2022/01/07 03:48:41;;;;;;;0.30;0.10;;;-1.50;99.90;;;;;;5067194;28;20233;-85
2022/01/07 03:51:08;;;;;;;0.30;0.10;;;-1.50;99.90;;;;;;5068968;28;20202;-85
2022/01/07 03:53:35;;;;;;;0.30;0.10;;;-1.50;99.90;;;;;;5065220;28;20254;-85
2022/01/07 03:56:02;;;;;;;0.30;0.10;;;-1.40;99.90;;;;;;5062245;28;20241;-84
2022/01/07 03:58:29;;;;;;;0.30;0.10;;;-1.40;99.90;;;;;;5061877;28;20197;-85
2022/01/07 04:00:56;;;;;;;1.55;1.45;;;-1.50;99.90;;;;;;5059800;28;20240;-85
2022/01/07 04:03:25;;;;;;;0.30;0.10;;;-1.60;99.90;;;;;;5066682;28;20194;-87
2022/01/07 04:05:52;;;;;;;0.30;0.10;;;-1.60;99.90;;;;;;5057762;28;20265;-84
2022/01/07 04:08:19;;;;;;;0.30;0.10;;;-1.50;99.90;;;;;;5063639;28;20240;-84
2022/01/07 04:10:46;;;;;;;0.30;0.10;;;-1.50;99.90;;;;;;5070106;28;20199;-85
2022/01/07 04:13:12;;;;;;;0.30;0.10;;;-1.60;99.90;;;;;;5069425;28;20202;-84
2022/01/07 04:15:39;;;;;;;0.30;0.10;;;-1.70;99.90;;;;;;5068245;28;20218;-86
2022/01/07 04:18:07;;;;;;;0.30;0.10;;;-1.70;99.90;;;;;;5071379;28;20215;-85
2022/01/07 04:20:36;;;;;;;0.68;0.63;;;-1.60;99.90;;;;;;5065232;28;20202;-86
2022/01/07 04:23:05;;;;;;;0.30;0.10;;;-1.50;99.90;;;;;;5069355;28;20198;-86
2022/01/07 04:25:32;;;;;;;0.30;0.10;;;-1.60;99.90;;;;;;5059480;28;20900;-84
2022/01/07 04:28:01;;;;;;;1.20;1.10;;;-1.60;99.90;;;;;;5067895;28;20210;-85
2022/01/07 04:30:30;;;;;;;0.30;0.10;;;-1.50;99.90;;;;;;5067505;28;20194;-85
2022/01/07 04:32:58;;;;;;;0.30;0.10;;;-1.50;99.90;;;;;;5064595;28;20280;-84
2022/01/07 04:35:26;;;;;;;0.30;0.10;;;-1.80;99.90;;;;;;5064371;28;20235;-85
2022/01/07 04:37:54;;;;;;;2.03;1.23;;;-1.70;99.90;;;;;;5063774;28;20255;-84
2022/01/07 04:40:21;;;;;;;0.30;0.10;;;-1.70;99.90;;;;;;5071540;28;20259;-84
2022/01/07 04:42:49;;;;;;;0.30;0.10;;;-1.60;99.90;;;;;;5068869;28;20198;-85
2022/01/07 04:45:16;;;;;;;1.45;1.45;;;-1.50;99.90;;;;;;5062167;28;20270;-84
2022/01/07 04:47:43;;;;;;;0.30;0.10;;;-1.50;99.90;;;;;;5065809;28;20275;-85
2022/01/07 04:50:13;;;;;;;0.60;0.60;;;-1.50;99.90;;;;;;5056397;28;20198;-85
2022/01/07 04:52:43;;;;;;;0.30;0.10;;;-1.60;99.90;;;;;;5069206;28;20198;-85
2022/01/07 04:55:13;;;;;;;0.30;0.10;;;-1.50;99.90;;;;;;5063573;28;20214;-86
2022/01/07 04:57:40;;;;;;;1.10;1.10;;;-1.50;99.90;;;;;;5064503;28;20203;-84
2022/01/07 05:00:08;;;;;;;0.70;0.35;;;-1.70;99.90;;;;;;5063645;28;20202;-84
2022/01/07 05:02:35;;;;;;;0.30;0.10;;;-1.70;99.90;;;;;;5067416;28;20294;-85
2022/01/07 05:05:03;;;;;;;0.30;0.10;;;-1.60;99.90;;;;;;5065304;28;20232;-84
2022/01/07 05:07:30;;;;;;;0.30;0.10;;;-1.70;99.90;;;;;;5067504;28;20638;-84
2022/01/07 05:09:56;;;;;;;0.30;0.10;;;-1.60;99.90;;;;;;5068629;28;20194;-84
2022/01/07 05:12:25;;;;;;;0.30;0.20;;;-1.70;99.90;;;;;;5068391;28;20194;-85
2022/01/07 05:14:52;;;;;;;0.30;0.10;;;-1.70;99.90;;;;;;5068110;28;20240;-85
2022/01/07 05:17:19;;;;;;;0.43;0.43;;;-1.60;99.90;;;;;;5056339;28;20253;-84
2022/01/07 05:19:46;;;;;;;0.30;0.10;;;-1.50;99.90;;;;;;5054835;28;20592;-85
2022/01/07 05:22:13;;;;;;;0.30;0.10;;;-1.60;99.90;;;;;;5065789;28;20657;-84
2022/01/07 05:24:40;;;;;;;0.30;0.10;;;-1.60;99.90;;;;;;5066216;28;20614;-83
2022/01/07 05:27:07;;;;;;;0.30;0.10;;;-1.60;99.90;;;;;;5068462;28;20568;-84
2022/01/07 05:29:35;;;;;;;0.30;0.10;;;-1.70;99.90;;;;;;5065313;28;20193;-85
2022/01/07 05:32:03;;;;;;;0.30;0.20;;;-1.60;99.90;;;;;;5058841;28;20232;-86
2022/01/07 05:34:30;;;;;;;0.30;0.20;;;-1.60;99.90;;;;;;5065286;28;20259;-84
2022/01/07 05:36:58;;;;;;;0.30;0.10;;;-1.60;99.90;;;;;;5066240;28;20261;-83
2022/01/07 05:39:25;;;;;;;0.30;0.20;;;-1.70;99.90;;;;;;5054374;28;20244;-85
2022/01/07 05:41:52;;;;;;;0.30;0.17;;;-1.70;99.90;;;;;;5062231;28;20194;-85
2022/01/07 05:44:21;;;;;;;0.50;0.50;;;-1.60;99.90;;;;;;5065083;28;20239;-84
2022/01/07 05:46:49;;;;;;;0.30;0.10;;;-1.70;99.90;;;;;;5068193;28;20284;-86
2022/01/07 05:49:16;;;;;;;0.30;0.10;;;-1.60;99.90;;;;;;5061016;28;20657;-85
2022/01/07 05:51:43;;;;;;;3.10;0.60;;;-1.60;99.90;;;;;;5066260;28;20248;-85
2022/01/07 05:54:11;;;;;;;0.30;0.10;;;-1.60;99.90;;;;;;5069675;28;20194;-85
2022/01/07 05:56:37;;;;;;;0.30;0.10;;;-1.60;99.90;;;;;;5063000;28;20241;-84
2022/01/07 05:59:05;;;;;;;0.52;0.52;;;-1.50;99.90;;;;;;5062127;28;20319;-84
2022/01/07 06:01:32;;;;;;;0.30;0.10;;;-1.50;99.90;;;;;;5068073;28;20197;-85
2022/01/07 06:04:01;;;;;;;0.30;0.10;;;-1.50;99.90;;;;;;5067172;28;20672;-88
2022/01/07 06:06:28;;;;;;;0.30;0.20;;;-1.50;99.90;;;;;;5069091;28;20282;-82
2022/01/07 06:08:55;;;;;;;0.30;0.10;;;-1.50;99.90;;;;;;5060115;28;20225;-86
2022/01/07 06:11:22;;;;;;;0.40;0.30;;;-1.50;99.90;;;;;;5055071;28;20279;-81
2022/01/07 06:13:49;;;;;;;0.30;0.10;;;-1.60;99.90;;;;;;5068365;28;20198;-82
2022/01/07 06:16:16;;;;;;;0.30;0.10;;;-1.60;99.90;;;;;;5059682;28;20556;-83
2022/01/07 06:18:50;;;;;;;0.30;0.20;;;-1.50;99.90;;;;;;5049805;28;20657;-82
2022/01/07 06:21:19;;;;;;;0.30;0.10;;;-1.50;99.90;;;;;;5050087;28;20668;-83
2022/01/07 06:23:45;;;;;;;0.30;0.10;;;-1.50;99.90;;;;;;5049605;28;20585;-82
2022/01/07 06:26:12;;;;;;;0.30;0.10;;;-1.50;99.90;;;;;;5050438;28;20199;-83
2022/01/07 06:28:39;;;;;;;0.30;0.10;;;-1.50;99.90;;;;;;5048868;28;20716;-81
2022/01/07 06:31:06;;;;;;;0.30;0.10;;;-1.60;99.90;;;;;;5050458;28;20210;-83
2022/01/07 06:33:33;;;;;;;0.30;0.10;;;-1.60;99.90;;;;;;5049781;28;20202;-81
2022/01/07 06:36:00;;;;;;;0.40;0.28;;;-1.60;99.90;;;;;;5049445;28;20696;-82
2022/01/07 06:38:29;;;;;;;0.30;0.10;;;-1.60;99.90;;;;;;5049807;28;20649;-82
2022/01/07 06:40:56;;;;;;;0.30;0.20;;;-1.70;99.90;;;;;;5049089;28;20604;-83
2022/01/07 06:43:23;;;;;;;0.30;0.10;;;-1.60;99.90;;;;;;5049715;28;20194;-83
2022/01/07 06:45:50;;;;;;;0.30;0.10;;;-1.50;99.90;;;;;;5048276;28;20210;-85
2022/01/07 06:48:18;;;;;;;0.30;0.30;;;-1.50;99.90;;;;;;5049472;28;20681;-82
2022/01/07 06:50:45;;;;;;;0.30;0.10;;;-1.50;99.90;;;;;;5049327;28;20582;-82
2022/01/07 06:53:12;;;;;;;0.30;0.10;;;-1.50;99.90;;;;;;5049855;28;20209;-85
2022/01/07 06:55:41;;;;;;;0.30;0.10;;;-1.50;99.90;;;;;;5049677;28;20588;-83
2022/01/07 06:58:08;;;;;;;1.05;1.05;;;-1.50;99.90;;;;;;5049436;28;20574;-84
2022/01/07 07:00:35;;;;;;;0.60;0.40;;;-1.60;99.90;;;;;;5049247;28;20291;-82
2022/01/07 07:03:02;;;;;;;0.30;0.10;;;-1.70;99.90;;;;;;5062539;28;20638;-84
2022/01/07 07:05:29;;;;;;;0.30;0.10;;;-1.80;99.90;;;;;;5059484;28;20209;-82
2022/01/07 07:07:56;;;;;;;0.30;0.10;;;-1.70;99.90;;;;;;5061006;28;20256;-83
2022/01/07 07:10:22;;;;;;;0.30;0.10;;;-1.70;99.90;;;;;;5065314;28;20653;-82
2022/01/07 07:12:51;;;;;;;0.68;0.68;;;-1.60;99.90;;;;;;5049515;28;20202;-82
2022/01/07 07:15:21;;;;;;;0.30;0.10;;;-1.60;99.90;;;;;;5068147;28;20213;-85
2022/01/07 07:17:48;;;;;;;0.30;0.10;;;-1.50;99.90;;;;;;5069386;28;20748;-83
2022/01/07 07:20:15;;;;;;;0.30;0.20;;;-1.50;99.90;;;;;;5072731;28;20284;-82
2022/01/07 07:22:42;;;;;;;0.50;0.50;;;-1.50;99.90;;;;;;5071012;28;20641;-82
2022/01/07 07:25:10;;;;;;;0.73;0.73;;;-1.50;99.90;;;;;;5053777;28;20257;-84
2022/01/07 07:27:37;;;;;;;0.30;0.10;;;-1.50;99.90;;;;;;5052709;28;20259;-83
2022/01/07 07:30:08;;;;;;;0.30;0.10;;;-1.60;99.90;;;;;;5066340;28;20210;-84
2022/01/07 07:32:36;;;;;;;0.30;0.10;;;-1.50;99.90;;;;;;5056241;28;20201;-82
2022/01/07 07:36:26;;;;;;;0.30;0.20;;;-1.80;99.90;;;;;;5057322;28;20232;-84
2022/01/07 07:37:51;;;;;;;0.30;0.10;;;-1.70;99.90;;;;;;5056785;28;20658;-82
2022/01/07 07:40:19;;;;;;;0.30;0.10;;;-1.60;99.90;;;;;;5072448;28;20197;-81
2022/01/07 07:42:46;;;;;;;0.30;0.17;;;-1.50;99.90;;;;;;5057699;28;20348;-82
2022/01/07 07:45:14;;;;;;;0.30;0.10;;;-1.70;99.90;;;;;;5072818;28;20557;-81
2022/01/07 07:47:41;;;;;;;0.30;0.10;;;-1.70;99.90;;;;;;5069797;28;20193;-81
2022/01/07 07:50:09;;;;;;;0.30;0.10;;;-1.80;99.90;;;;;;5064596;28;20293;-84
2022/01/07 07:52:36;;;;;;;0.30;0.10;;;-1.60;99.90;;;;;;5052207;28;20257;-81
2022/01/07 07:55:04;;;;;;;0.30;0.10;;;-1.60;99.90;;;;;;5058565;28;20201;-83
2022/01/07 07:57:31;;;;;;;0.30;0.10;;;-1.50;99.90;;;;;;5071588;28;20271;-86
2022/01/07 07:59:58;;;;;;;0.30;0.20;;;-1.60;99.90;;;;;;5059681;28;20202;-86
2022/01/07 08:02:30;;;;;;;0.30;0.10;;;-1.80;99.90;;;;;;5070123;28;20198;-86
2022/01/07 08:04:57;;;;;;;0.30;0.10;;;-1.70;99.90;;;;;;5071496;28;20198;-84
2022/01/07 08:07:24;;;;;;;0.30;0.20;;;-1.70;99.90;;;;;;5069744;28;20198;-84
2022/01/07 08:09:52;;;;;;;0.30;0.10;;;-1.80;99.90;;;;;;5069676;28;20270;-86
2022/01/07 08:12:24;;;;;;;0.30;0.10;;;-1.90;99.90;;;;;;5068477;28;20190;-85
2022/01/07 08:17:37;;;;;;;0.30;0.10;;;-1.90;99.90;;;;;;5062484;28;20615;-85
2022/01/07 08:20:06;;;;;;;0.30;0.20;;;-1.80;99.90;;;;;;5059901;28;20238;-85
2022/01/07 08:22:33;;;;;;;0.30;0.10;;;-1.60;99.90;;;;;;5065979;28;20555;-85
2022/01/07 08:25:00;;;;;;;0.30;0.20;;;-1.40;99.90;;;;;;5071263;28;20262;-85
2022/01/07 08:27:27;;;;;;;0.30;0.10;;;-1.50;99.90;;;;;;5067733;28;20197;-86
2022/01/07 08:29:54;;;;;;;0.30;0.10;;;-1.50;99.90;;;;;;5071527;28;20279;-85
2022/01/07 08:35:08;;;;;;;0.30;0.20;;;-1.60;99.90;;;;;;5054775;28;20217;-85
2022/01/07 08:37:34;;;;;;;0.40;0.30;;;-1.70;99.90;;;;;;5060583;28;20356;-85
2022/01/07 08:40:02;;;;;;;0.30;0.10;;;-1.70;99.90;;;;;;5071315;28;21002;-84
2022/01/07 08:42:29;;;;;;;0.30;0.30;;;-1.80;99.90;;;;;;5071502;28;20198;-85
2022/01/07 08:44:56;;;;;;;0.30;0.10;;;-1.70;99.90;;;;;;5062958;28;20647;-85
2022/01/07 08:47:25;;;;;;;0.30;0.10;;;-1.80;99.90;;;;;;5068886;28;20197;-85
2022/01/07 08:49:53;;;;;;;0.30;0.10;;;-1.70;99.90;;;;;;5069622;28;20239;-86
2022/01/07 08:52:22;;;;;;;0.30;0.10;;;-1.70;99.90;;;;;;5068326;28;20879;-85
2022/01/07 08:54:51;;;;;;;0.30;0.20;;;-2.00;99.90;;;;;;5071308;28;20205;-85
2022/01/07 08:57:20;;;;;;;0.30;0.20;;;-2.00;99.90;;;;;;5068157;28;20221;-86
2022/01/07 08:59:47;;;;;;;0.30;0.10;;;-2.00;99.90;;;;;;5070664;28;20213;-85
2022/01/07 09:02:14;;;;;;;0.30;0.10;;;-1.90;99.90;;;;;;5070753;28;20202;-86
2022/01/07 09:04:41;;;;;;;0.30;0.10;;;-1.70;99.90;;;;;;5068276;28;20547;-86
2022/01/07 09:07:08;;;;;;;0.30;0.10;;;-1.60;99.90;;;;;;5067536;28;20298;-86
2022/01/07 09:09:36;;;;;;;0.30;0.10;;;-1.40;99.90;;;;;;5070602;28;20235;-87
2022/01/07 09:12:04;;;;;;;0.40;0.40;;;-1.40;99.90;;;;;;5059128;28;21073;-86
2022/01/07 09:14:31;;;;;;;0.30;0.10;;;-1.30;99.90;;;;;;5065928;28;20194;-86
2022/01/07 09:16:58;;;;;;;0.30;0.10;;;-1.20;99.90;;;;;;5065739;28;20624;-85
2022/01/07 09:19:26;;;;;;;0.47;0.47;;;-1.10;99.90;;;;;;5068673;28;20284;-86
2022/01/07 09:21:55;;;;;;;0.30;0.10;;;-1.10;99.90;;;;;;5069974;28;20208;-87
2022/01/07 09:24:23;;;;;;;0.30;0.10;;;-1.30;99.90;;;;;;5070168;28;20194;-87
2022/01/07 09:26:51;;;;;;;0.30;0.10;;;-1.30;99.90;;;;;;5068393;28;20236;-85
2022/01/07 09:29:18;;;;;;;0.30;0.10;;;-1.40;99.90;;;;;;5067089;28;20774;-87
2022/01/07 09:31:45;;;;;;;0.30;0.10;;;-1.40;99.90;;;;;;5068953;28;20199;-86
2022/01/07 09:34:12;;;;;;;0.30;0.10;;;-1.40;99.90;;;;;;5069659;28;20646;-86
2022/01/07 09:36:39;;;;;;;0.30;0.10;;;-1.40;99.90;;;;;;5063104;28;20248;-87
2022/01/07 09:39:06;;;;;;;0.30;0.10;;;-1.30;99.90;;;;;;5070154;28;20199;-87
2022/01/07 09:41:33;;;;;;;0.30;0.10;;;-1.20;99.90;;;;;;5065495;28;20240;-86
2022/01/07 09:44:02;;;;;;;0.30;0.10;;;-1.10;99.90;;;;;;5058717;28;20594;-87
2022/01/07 09:46:29;;;;;;;1.50;0.50;;;-1.00;99.90;;;;;;5064234;28;20280;-85
2022/01/07 09:48:56;;;;;;;0.30;0.10;;;-1.10;99.90;;;;;;5065373;28;20199;-86
2022/01/07 09:51:26;;;;;;;0.30;0.10;;;-1.20;99.90;;;;;;5062306;28;20242;-87
2022/01/07 09:53:53;;;;;;;0.30;0.10;;;-1.10;99.90;;;;;;5059527;28;20231;-86
2022/01/07 09:56:20;;;;;;;1.67;1.58;;;-1.30;99.90;;;;;;5050390;28;20251;-88
2022/01/07 09:58:48;;;;;;;0.30;0.10;;;-1.50;99.90;;;;;;5049908;28;20624;-81
2022/01/07 10:01:19;;;;;;;0.30;0.10;;;-1.30;99.90;;;;;;5065742;28;20213;-84
2022/01/07 10:03:46;;;;;;;1.05;0.65;;;-1.10;99.90;;;;;;5069340;28;20198;-82
2022/01/07 10:06:19;;;;;;;0.30;0.10;;;-1.10;99.90;;;;;;5069657;28;20261;-82
2022/01/07 10:08:58;;;;;;;0.30;0.10;;;-1.10;99.90;;;;;;5069785;28;20240;-84
2022/01/07 10:11:25;;;;;;;0.30;0.20;;;-1.10;99.90;;;;;;5049789;28;20200;-84
2022/01/07 10:14:17;;;;;;;0.30;0.10;;;-1.10;99.90;;;;;;5049585;28;20197;-83
2022/01/07 10:16:53;;;;;;;0.30;0.10;;;-1.00;99.90;;;;;;5050887;28;20526;-83
2022/01/07 10:19:34;;;;;;;0.30;0.10;;;-1.00;99.90;;;;;;5050263;28;20259;-82
2022/01/07 10:22:04;;;;;;;0.30;0.10;;;-0.80;99.90;;;;;;5065919;28;20210;-84
2022/01/07 10:24:31;;;;;;;0.60;0.55;;;-1.00;99.90;;;;;;5064867;28;20326;-84
2022/01/07 10:27:12;;;;;;;0.30;0.10;;;-1.10;99.90;;;;;;5069286;28;20209;-83
2022/01/07 10:29:40;;;;;;;0.30;0.10;;;-1.20;99.90;;;;;;5069322;28;20194;-81
2022/01/07 10:32:25;;;;;;;0.30;0.10;;;-0.90;99.90;;;;;;5058071;28;20718;-83
2022/01/07 10:35:04;;;;;;;0.30;0.10;;;-1.10;99.90;;;;;;5066705;28;20253;-81
2022/01/07 10:37:31;;;;;;;0.30;0.10;;;-1.00;99.90;;;;;;5067653;28;20271;-82
2022/01/07 10:39:58;;;;;;;0.40;0.40;;;-1.10;99.90;;;;;;5066819;28;20199;-81
2022/01/07 10:42:27;;;;;;;0.30;0.20;;;-1.10;99.90;;;;;;5069547;28;20514;-83
2022/01/07 10:44:59;;;;;;;0.30;0.20;;;-1.10;99.90;;;;;;5069077;28;20200;-83
2022/01/07 10:47:29;;;;;;;0.30;0.10;;;-1.00;99.90;;;;;;5062966;28;20198;-81
2022/01/07 10:50:13;;;;;;;0.40;0.25;;;-0.80;99.90;;;;;;5069488;28;20211;-82
2022/01/07 10:52:41;;;;;;;0.30;0.10;;;-0.80;99.90;;;;;;5073311;28;20274;-82
2022/01/07 10:55:09;;;;;;;1.55;1.52;;;-0.80;99.90;;;;;;5073726;28;20199;-84
2022/01/07 10:57:38;;;;;;;0.30;0.10;;;-0.80;99.90;;;;;;5064907;28;20303;-84
2022/01/07 11:00:08;;;;;;;0.30;0.10;;;-0.90;99.90;;;;;;5053783;28;20204;-83
2022/01/07 11:02:36;;;;;;;0.30;0.10;;;-0.90;99.90;;;;;;5053249;28;20709;-84
2022/01/07 11:05:03;;;;;;;0.30;0.10;;;-1.10;99.90;;;;;;5053441;28;20271;-82
2022/01/07 11:07:31;;;;;;;0.30;0.10;;;-1.00;99.90;;;;;;5053433;28;20207;-84
2022/01/07 11:09:58;;;;;;;0.30;0.10;;;-1.10;99.90;;;;;;5066188;28;20252;-84
2022/01/07 11:12:26;;;;;;;0.30;0.10;;;-1.10;99.90;;;;;;5055674;28;20641;-82
2022/01/07 11:14:53;;;;;;;0.30;0.10;;;-1.10;99.90;;;;;;5053420;28;20194;-84
2022/01/07 11:17:21;;;;;;;0.63;0.63;;;-1.10;99.90;;;;;;5053761;28;20214;-84
2022/01/07 11:19:53;;;;;;;0.30;0.10;;;-1.20;99.90;;;;;;5053602;28;20693;-83
2022/01/07 11:22:22;;;;;;;0.30;0.10;;;-1.20;99.90;;;;;;5053280;28;20224;-84
2022/01/07 11:24:53;;;;;;;0.30;0.10;;;-1.20;99.90;;;;;;5053843;28;20210;-84
2022/01/07 11:27:25;;;;;;;0.30;0.10;;;-1.10;99.90;;;;;;5052503;28;20557;-83
2022/01/07 11:30:10;;;;;;;0.30;0.10;;;-1.10;99.90;;;;;;5061152;28;20251;-83
2022/01/07 11:32:39;;;;;;;0.30;0.10;;;-1.00;99.90;;;;;;5064759;28;20198;-85
2022/01/07 11:35:49;;;;;;;0.30;0.10;;;-1.00;99.90;;;;;;5052718;28;20264;-85
2022/01/07 11:38:33;;;;;;;0.30;0.10;;;-0.90;99.90;;;;;;5052861;28;20311;-83
2022/01/07 11:41:00;;;;;;;0.30;0.10;;;-0.90;99.90;;;;;;5052368;28;20204;-82
2022/01/07 11:43:33;;;;;;;0.40;0.20;;;-0.90;99.90;;;;;;5054024;28;20199;-83
2022/01/07 11:46:01;;;;;;;0.30;0.10;;;-0.80;99.90;;;;;;5052603;28;20203;-83
2022/01/07 11:48:30;;;;;;;0.30;0.10;;;-0.80;99.90;;;;;;5056284;28;20197;-83
2022/01/07 11:51:14;;;;;;;5.28;2.08;;;-0.70;99.90;;;;;;5073303;28;20649;-82
2022/01/07 11:54:03;;;;;;;0.30;0.20;;;-0.60;99.90;;;;;;5072607;28;20193;-85
2022/01/07 11:56:31;;;;;;;0.30;0.10;;;-0.60;99.90;;;;;;5052688;28;20198;-82
2022/01/07 11:59:00;;;;;;;0.77;0.77;;;-0.40;99.90;;;;;;5052570;28;20287;-83
2022/01/07 12:01:29;;;;;;;0.30;0.10;;;-0.40;99.90;;;;;;5052632;28;20199;-83
2022/01/07 12:03:57;;;;;;;0.30;0.10;;;-0.50;99.90;;;;;;5058114;28;20199;-82
2022/01/07 12:06:47;;;;;;;0.30;0.10;;;-0.40;99.90;;;;;;5053019;28;20205;-84
2022/01/07 12:09:19;;;;;;;0.40;0.40;;;-0.50;99.90;;;;;;5059367;28;20202;-84
2022/01/07 12:11:56;;;;;;;0.30;0.10;;;-0.50;99.90;;;;;;5064089;28;20195;-82
2022/01/07 12:14:25;;;;;;;0.30;0.10;;;-0.50;99.90;;;;;;5052158;28;20551;-82
2022/01/07 12:16:53;;;;;;;0.60;0.35;;;-0.50;99.90;;;;;;5051614;28;20206;-82
2022/01/07 12:20:14;;;;;;;0.30;0.10;;;-0.40;99.90;;;;;;5052161;28;20227;-83
2022/01/07 12:22:50;;;;;;;0.30;0.10;;;-0.40;99.90;;;;;;5051836;28;20540;-83
2022/01/07 12:25:19;;;;;;;0.30;0.10;;;-0.40;99.90;;;;;;5051619;28;20799;-83
2022/01/07 12:27:47;;;;;;;1.20;1.10;;;-0.40;99.90;;;;;;5052624;28;20217;-83
2022/01/07 12:30:14;;;;;;;0.30;0.10;;;-0.50;99.90;;;;;;5051889;28;20196;-85
2022/01/07 12:32:41;;;;;;;0.30;0.10;;;-0.30;99.90;;;;;;5052595;28;20200;-83
2022/01/07 12:35:10;;;;;;;0.30;0.20;;;-0.50;99.90;;;;;;5071119;28;20231;-82
2022/01/07 12:37:38;;;;;;;0.30;0.10;;;-0.50;99.90;;;;;;5070030;28;20202;-83
2022/01/07 12:40:08;;;;;;;0.30;0.20;;;-0.40;99.90;;;;;;5066791;28;20214;-82
2022/01/07 12:42:43;;;;;;;0.30;0.10;;;-0.30;99.90;;;;;;5066434;28;20202;-83
2022/01/07 12:45:17;;;;;;;0.30;0.10;;;-0.30;99.90;;;;;;5051554;28;20685;-83
2022/01/07 12:47:44;;;;;;;0.30;0.10;;;-0.30;99.90;;;;;;5060891;28;20702;-85
2022/01/07 12:50:12;;;;;;;0.30;0.10;;;-0.10;99.90;;;;;;5059326;28;20603;-84
2022/01/07 12:52:41;;;;;;;0.30;0.10;;;-0.10;99.90;;;;;;5068226;28;20196;-83
2022/01/07 12:55:12;;;;;;;0.30;0.10;;;-0.10;99.90;;;;;;5070776;28;20677;-83
2022/01/07 12:57:44;;;;;;;0.30;0.10;;;-0.10;99.90;;;;;;5068403;28;20200;-86
2022/01/07 13:00:15;;;;;;;0.30;0.20;;;-0.20;99.90;;;;;;5071216;28;20206;-84